sensor_id;sensor_type;location;lat;lon;timestamp;P1;durP1;ratioP1;P2;durP2;ratioP2
5813;SDS011;2933;52.302;8.134;2023-05-23T00:00:14;11.97;;;9.23;;
5813;SDS011;2933;52.302;8.134;2023-05-23T00:05:16;15.40;;;9.60;;
5813;SDS011;2933;52.302;8.134;2023-05-23T00:10:18;15.63;;;9.80;;
5813;SDS011;2933;52.302;8.134;2023-05-23T00:15:20;13.83;;;8.97;;
5813;SDS011;2933;52.302;8.134;2023-05-23T00:20:22;13.40;;;9.53;;
5813;SDS011;2933;52.302;8.134;2023-05-23T00:25:24;20.50;;;11.13;;
5813;SDS011;2933;52.302;8.134;2023-05-23T00:30:34;18.23;;;10.10;;
5813;SDS011;2933;52.302;8.134;2023-05-23T00:35:36;13.23;;;9.43;;
5813;SDS011;2933;52.302;8.134;2023-05-23T00:40:37;11.90;;;8.20;;
5813;SDS011;2933;52.302;8.134;2023-05-23T00:45:40;15.90;;;9.43;;
5813;SDS011;2933;52.302;8.134;2023-05-23T00:50:41;11.90;;;8.70;;
5813;SDS011;2933;52.302;8.134;2023-05-23T00:55:43;12.53;;;8.23;;
5813;SDS011;2933;52.302;8.134;2023-05-23T01:00:46;13.53;;;7.93;;
5813;SDS011;2933;52.302;8.134;2023-05-23T01:05:49;9.67;;;7.30;;
5813;SDS011;2933;52.302;8.134;2023-05-23T01:10:51;10.10;;;7.20;;
5813;SDS011;2933;52.302;8.134;2023-05-23T01:15:57;16.03;;;8.10;;
5813;SDS011;2933;52.302;8.134;2023-05-23T01:21:05;11.97;;;7.20;;
5813;SDS011;2933;52.302;8.134;2023-05-23T01:26:12;8.90;;;6.90;;
5813;SDS011;2933;52.302;8.134;2023-05-23T01:31:26;14.07;;;7.50;;
5813;SDS011;2933;52.302;8.134;2023-05-23T01:36:31;15.73;;;7.10;;
5813;SDS011;2933;52.302;8.134;2023-05-23T01:41:34;9.30;;;6.93;;
5813;SDS011;2933;52.302;8.134;2023-05-23T01:46:37;10.37;;;7.40;;
5813;SDS011;2933;52.302;8.134;2023-05-23T01:51:39;8.17;;;6.67;;
5813;SDS011;2933;52.302;8.134;2023-05-23T01:56:41;13.33;;;7.73;;
5813;SDS011;2933;52.302;8.134;2023-05-23T02:01:45;10.77;;;7.63;;
5813;SDS011;2933;52.302;8.134;2023-05-23T02:06:46;11.87;;;6.90;;
5813;SDS011;2933;52.302;8.134;2023-05-23T02:11:48;11.40;;;7.17;;
5813;SDS011;2933;52.302;8.134;2023-05-23T02:16:51;13.20;;;8.87;;
5813;SDS011;2933;52.302;8.134;2023-05-23T02:21:52;15.57;;;8.60;;
5813;SDS011;2933;52.302;8.134;2023-05-23T02:26:54;16.13;;;8.87;;
5813;SDS011;2933;52.302;8.134;2023-05-23T02:31:57;16.03;;;8.53;;
5813;SDS011;2933;52.302;8.134;2023-05-23T02:36:59;14.13;;;8.53;;
5813;SDS011;2933;52.302;8.134;2023-05-23T02:42:01;14.47;;;8.97;;
5813;SDS011;2933;52.302;8.134;2023-05-23T02:47:05;13.20;;;8.57;;
5813;SDS011;2933;52.302;8.134;2023-05-23T02:52:06;17.60;;;10.20;;
5813;SDS011;2933;52.302;8.134;2023-05-23T02:57:08;18.60;;;10.67;;
5813;SDS011;2933;52.302;8.134;2023-05-23T03:02:11;23.40;;;11.07;;
5813;SDS011;2933;52.302;8.134;2023-05-23T03:07:13;24.30;;;12.30;;
5813;SDS011;2933;52.302;8.134;2023-05-23T03:12:15;24.13;;;11.00;;
5813;SDS011;2933;52.302;8.134;2023-05-23T03:17:18;20.10;;;11.20;;
5813;SDS011;2933;52.302;8.134;2023-05-23T03:22:20;20.37;;;10.10;;
5813;SDS011;2933;52.302;8.134;2023-05-23T03:27:21;16.00;;;9.83;;
5813;SDS011;2933;52.302;8.134;2023-05-23T03:32:24;23.03;;;9.93;;
5813;SDS011;2933;52.302;8.134;2023-05-23T03:37:26;21.10;;;11.33;;
5813;SDS011;2933;52.302;8.134;2023-05-23T03:42:27;23.37;;;11.07;;
5813;SDS011;2933;52.302;8.134;2023-05-23T03:47:31;19.40;;;11.17;;
5813;SDS011;2933;52.302;8.134;2023-05-23T03:52:32;22.10;;;11.47;;
5813;SDS011;2933;52.302;8.134;2023-05-23T03:57:34;19.77;;;12.07;;
5813;SDS011;2933;52.302;8.134;2023-05-23T04:02:37;23.00;;;11.87;;
5813;SDS011;2933;52.302;8.134;2023-05-23T04:07:38;32.57;;;12.23;;
5813;SDS011;2933;52.302;8.134;2023-05-23T04:12:40;24.00;;;13.67;;
5813;SDS011;2933;52.302;8.134;2023-05-23T04:17:43;29.40;;;13.27;;
5813;SDS011;2933;52.302;8.134;2023-05-23T04:22:45;27.17;;;12.77;;
5813;SDS011;2933;52.302;8.134;2023-05-23T04:27:46;25.00;;;13.27;;
5813;SDS011;2933;52.302;8.134;2023-05-23T04:32:49;28.37;;;13.77;;
5813;SDS011;2933;52.302;8.134;2023-05-23T04:37:51;30.20;;;15.20;;
5813;SDS011;2933;52.302;8.134;2023-05-23T04:42:55;34.87;;;13.93;;
5813;SDS011;2933;52.302;8.134;2023-05-23T04:47:58;29.03;;;14.27;;
5813;SDS011;2933;52.302;8.134;2023-05-23T04:53:00;26.43;;;13.30;;
5813;SDS011;2933;52.302;8.134;2023-05-23T04:58:01;24.40;;;13.33;;
5813;SDS011;2933;52.302;8.134;2023-05-23T05:03:05;20.63;;;13.60;;
5813;SDS011;2933;52.302;8.134;2023-05-23T05:08:08;27.07;;;13.40;;
5813;SDS011;2933;52.302;8.134;2023-05-23T05:13:10;19.97;;;11.53;;
5813;SDS011;2933;52.302;8.134;2023-05-23T05:18:13;25.57;;;12.87;;
5813;SDS011;2933;52.302;8.134;2023-05-23T05:23:15;25.43;;;12.47;;
5813;SDS011;2933;52.302;8.134;2023-05-23T05:28:17;26.30;;;11.70;;
5813;SDS011;2933;52.302;8.134;2023-05-23T05:33:22;26.97;;;12.20;;
5813;SDS011;2933;52.302;8.134;2023-05-23T05:38:23;16.80;;;10.40;;
5813;SDS011;2933;52.302;8.134;2023-05-23T05:43:25;17.47;;;9.50;;
5813;SDS011;2933;52.302;8.134;2023-05-23T05:48:28;18.90;;;9.13;;
5813;SDS011;2933;52.302;8.134;2023-05-23T05:53:29;14.50;;;8.87;;
5813;SDS011;2933;52.302;8.134;2023-05-23T05:58:31;19.63;;;9.27;;
5813;SDS011;2933;52.302;8.134;2023-05-23T06:03:34;16.00;;;8.70;;
5813;SDS011;2933;52.302;8.134;2023-05-23T06:08:35;20.67;;;8.47;;
5813;SDS011;2933;52.302;8.134;2023-05-23T06:13:37;18.73;;;8.93;;
5813;SDS011;2933;52.302;8.134;2023-05-23T06:18:40;13.63;;;8.10;;
5813;SDS011;2933;52.302;8.134;2023-05-23T06:23:41;17.37;;;8.40;;
5813;SDS011;2933;52.302;8.134;2023-05-23T06:28:43;22.23;;;7.90;;
5813;SDS011;2933;52.302;8.134;2023-05-23T06:33:46;17.40;;;7.00;;
5813;SDS011;2933;52.302;8.134;2023-05-23T06:38:47;11.63;;;6.00;;
5813;SDS011;2933;52.302;8.134;2023-05-23T06:43:49;11.53;;;5.50;;
5813;SDS011;2933;52.302;8.134;2023-05-23T06:48:52;12.10;;;4.60;;
5813;SDS011;2933;52.302;8.134;2023-05-23T06:53:53;6.77;;;3.67;;
5813;SDS011;2933;52.302;8.134;2023-05-23T06:58:55;5.80;;;3.40;;
5813;SDS011;2933;52.302;8.134;2023-05-23T07:03:58;6.53;;;3.00;;
5813;SDS011;2933;52.302;8.134;2023-05-23T07:09:01;3.43;;;2.60;;
5813;SDS011;2933;52.302;8.134;2023-05-23T07:14:03;3.70;;;1.80;;
5813;SDS011;2933;52.302;8.134;2023-05-23T07:19:06;3.60;;;2.03;;
5813;SDS011;2933;52.302;8.134;2023-05-23T07:24:07;1.80;;;1.70;;
5813;SDS011;2933;52.302;8.134;2023-05-23T07:29:09;2.43;;;1.97;;
5813;SDS011;2933;52.302;8.134;2023-05-23T07:34:12;3.60;;;2.40;;
5813;SDS011;2933;52.302;8.134;2023-05-23T07:39:14;1.83;;;1.73;;
5813;SDS011;2933;52.302;8.134;2023-05-23T07:44:20;2.43;;;2.23;;
5813;SDS011;2933;52.302;8.134;2023-05-23T07:49:23;2.60;;;1.80;;
5813;SDS011;2933;52.302;8.134;2023-05-23T07:54:25;2.40;;;2.23;;
5813;SDS011;2933;52.302;8.134;2023-05-23T07:59:27;4.37;;;2.63;;
5813;SDS011;2933;52.302;8.134;2023-05-23T08:04:30;3.50;;;2.40;;
5813;SDS011;2933;52.302;8.134;2023-05-23T08:09:32;6.23;;;2.90;;
5813;SDS011;2933;52.302;8.134;2023-05-23T08:14:34;9.03;;;3.03;;
5813;SDS011;2933;52.302;8.134;2023-05-23T08:19:38;11.03;;;3.83;;
5813;SDS011;2933;52.302;8.134;2023-05-23T08:24:39;22.23;;;5.40;;
5813;SDS011;2933;52.302;8.134;2023-05-23T08:29:41;6.60;;;4.07;;
5813;SDS011;2933;52.302;8.134;2023-05-23T08:34:44;10.33;;;4.17;;
5813;SDS011;2933;52.302;8.134;2023-05-23T08:39:46;10.33;;;4.97;;
5813;SDS011;2933;52.302;8.134;2023-05-23T08:44:47;12.70;;;4.60;;
5813;SDS011;2933;52.302;8.134;2023-05-23T08:49:50;16.53;;;5.67;;
5813;SDS011;2933;52.302;8.134;2023-05-23T08:54:55;19.70;;;5.27;;
5813;SDS011;2933;52.302;8.134;2023-05-23T08:59:57;21.13;;;5.83;;
5813;SDS011;2933;52.302;8.134;2023-05-23T09:05:02;22.60;;;6.03;;
5813;SDS011;2933;52.302;8.134;2023-05-23T09:10:04;13.83;;;4.93;;
5813;SDS011;2933;52.302;8.134;2023-05-23T09:15:07;13.90;;;5.17;;
5813;SDS011;2933;52.302;8.134;2023-05-23T09:20:12;8.70;;;4.73;;
5813;SDS011;2933;52.302;8.134;2023-05-23T09:25:15;16.00;;;4.83;;
5813;SDS011;2933;52.302;8.134;2023-05-23T09:30:16;9.83;;;4.90;;
5813;SDS011;2933;52.302;8.134;2023-05-23T09:35:21;16.37;;;4.73;;
5813;SDS011;2933;52.302;8.134;2023-05-23T09:40:23;12.90;;;3.33;;
5813;SDS011;2933;52.302;8.134;2023-05-23T09:45:30;12.77;;;4.27;;
5813;SDS011;2933;52.302;8.134;2023-05-23T09:50:33;8.93;;;3.53;;
5813;SDS011;2933;52.302;8.134;2023-05-23T09:55:35;7.73;;;3.77;;
5813;SDS011;2933;52.302;8.134;2023-05-23T10:00:36;10.17;;;3.63;;
5813;SDS011;2933;52.302;8.134;2023-05-23T10:05:43;16.70;;;4.70;;
5813;SDS011;2933;52.302;8.134;2023-05-23T10:16:22;20.13;;;3.40;;
5813;SDS011;2933;52.302;8.134;2023-05-23T10:21:32;9.13;;;2.53;;
5813;SDS011;2933;52.302;8.134;2023-05-23T10:26:36;10.00;;;3.10;;
5813;SDS011;2933;52.302;8.134;2023-05-23T10:31:37;16.50;;;3.40;;
5813;SDS011;2933;52.302;8.134;2023-05-23T10:36:43;10.30;;;3.20;;
5813;SDS011;2933;52.302;8.134;2023-05-23T10:41:52;12.77;;;2.83;;
5813;SDS011;2933;52.302;8.134;2023-05-23T10:46:59;7.97;;;2.23;;
5813;SDS011;2933;52.302;8.134;2023-05-23T10:52:04;14.90;;;2.93;;
5813;SDS011;2933;52.302;8.134;2023-05-23T10:57:08;11.10;;;2.40;;
5813;SDS011;2933;52.302;8.134;2023-05-23T11:02:12;8.13;;;2.90;;
5813;SDS011;2933;52.302;8.134;2023-05-23T11:07:28;11.27;;;2.77;;
5813;SDS011;2933;52.302;8.134;2023-05-23T11:12:37;15.93;;;3.10;;
5813;SDS011;2933;52.302;8.134;2023-05-23T11:17:48;6.63;;;2.57;;
5813;SDS011;2933;52.302;8.134;2023-05-23T11:23:00;10.13;;;2.97;;
5813;SDS011;2933;52.302;8.134;2023-05-23T11:28:03;7.70;;;3.07;;
5813;SDS011;2933;52.302;8.134;2023-05-23T11:33:05;12.50;;;2.97;;
5813;SDS011;2933;52.302;8.134;2023-05-23T11:38:09;7.83;;;3.13;;
5813;SDS011;2933;52.302;8.134;2023-05-23T11:43:12;12.80;;;3.13;;
5813;SDS011;2933;52.302;8.134;2023-05-23T11:48:15;12.17;;;3.03;;
5813;SDS011;2933;52.302;8.134;2023-05-23T11:53:19;9.97;;;2.47;;
5813;SDS011;2933;52.302;8.134;2023-05-23T11:58:25;11.43;;;3.10;;
5813;SDS011;2933;52.302;8.134;2023-05-23T12:03:27;7.93;;;2.50;;
5813;SDS011;2933;52.302;8.134;2023-05-23T12:08:30;16.20;;;2.87;;
5813;SDS011;2933;52.302;8.134;2023-05-23T12:13:31;4.33;;;2.57;;
5813;SDS011;2933;52.302;8.134;2023-05-23T12:18:33;15.43;;;3.23;;
5813;SDS011;2933;52.302;8.134;2023-05-23T12:23:38;11.93;;;3.20;;
5813;SDS011;2933;52.302;8.134;2023-05-23T12:28:40;8.87;;;2.80;;
5813;SDS011;2933;52.302;8.134;2023-05-23T12:33:44;6.10;;;2.20;;
5813;SDS011;2933;52.302;8.134;2023-05-23T12:38:48;18.90;;;3.23;;
5813;SDS011;2933;52.302;8.134;2023-05-23T12:43:50;6.37;;;2.90;;
5813;SDS011;2933;52.302;8.134;2023-05-23T12:48:53;4.43;;;2.50;;
5813;SDS011;2933;52.302;8.134;2023-05-23T12:53:56;4.83;;;2.67;;
5813;SDS011;2933;52.302;8.134;2023-05-23T12:58:58;9.80;;;2.27;;
5813;SDS011;2933;52.302;8.134;2023-05-23T13:04:01;12.97;;;2.60;;
5813;SDS011;2933;52.302;8.134;2023-05-23T13:09:03;9.47;;;2.57;;
5813;SDS011;2933;52.302;8.134;2023-05-23T13:14:05;5.17;;;2.40;;
5813;SDS011;2933;52.302;8.134;2023-05-23T13:19:07;8.20;;;2.50;;
5813;SDS011;2933;52.302;8.134;2023-05-23T13:24:09;4.33;;;2.37;;
5813;SDS011;2933;52.302;8.134;2023-05-23T13:29:11;10.40;;;2.50;;
5813;SDS011;2933;52.302;8.134;2023-05-23T13:34:12;8.17;;;2.37;;
5813;SDS011;2933;52.302;8.134;2023-05-23T13:39:15;9.87;;;2.63;;
5813;SDS011;2933;52.302;8.134;2023-05-23T13:44:17;11.70;;;3.90;;
5813;SDS011;2933;52.302;8.134;2023-05-23T13:49:18;8.60;;;2.50;;
5813;SDS011;2933;52.302;8.134;2023-05-23T13:54:21;10.03;;;2.00;;
5813;SDS011;2933;52.302;8.134;2023-05-23T13:59:23;7.47;;;2.20;;
5813;SDS011;2933;52.302;8.134;2023-05-23T14:04:24;9.43;;;2.70;;
5813;SDS011;2933;52.302;8.134;2023-05-23T14:09:27;6.10;;;1.70;;
5813;SDS011;2933;52.302;8.134;2023-05-23T14:14:31;4.97;;;2.10;;
5813;SDS011;2933;52.302;8.134;2023-05-23T14:19:33;4.80;;;2.00;;
5813;SDS011;2933;52.302;8.134;2023-05-23T14:24:35;12.53;;;2.30;;
5813;SDS011;2933;52.302;8.134;2023-05-23T14:29:37;8.73;;;2.10;;
5813;SDS011;2933;52.302;8.134;2023-05-23T14:34:39;13.20;;;2.90;;
5813;SDS011;2933;52.302;8.134;2023-05-23T14:39:42;7.60;;;2.47;;
5813;SDS011;2933;52.302;8.134;2023-05-23T14:44:43;7.80;;;2.20;;
5813;SDS011;2933;52.302;8.134;2023-05-23T14:49:45;9.23;;;2.97;;
5813;SDS011;2933;52.302;8.134;2023-05-23T14:54:48;15.07;;;2.80;;
5813;SDS011;2933;52.302;8.134;2023-05-23T14:59:49;9.27;;;2.20;;
5813;SDS011;2933;52.302;8.134;2023-05-23T15:04:51;6.07;;;3.10;;
5813;SDS011;2933;52.302;8.134;2023-05-23T15:09:54;3.47;;;2.53;;
5813;SDS011;2933;52.302;8.134;2023-05-23T15:14:56;9.27;;;2.50;;
5813;SDS011;2933;52.302;8.134;2023-05-23T15:20:02;13.60;;;2.13;;
5813;SDS011;2933;52.302;8.134;2023-05-23T15:25:06;10.20;;;2.33;;
5813;SDS011;2933;52.302;8.134;2023-05-23T15:30:09;13.50;;;2.40;;
5813;SDS011;2933;52.302;8.134;2023-05-23T15:35:10;6.27;;;1.73;;
5813;SDS011;2933;52.302;8.134;2023-05-23T15:40:13;18.80;;;2.70;;
5813;SDS011;2933;52.302;8.134;2023-05-23T15:45:15;3.73;;;2.20;;
5813;SDS011;2933;52.302;8.134;2023-05-23T15:50:16;6.23;;;2.13;;
5813;SDS011;2933;52.302;8.134;2023-05-23T15:55:20;11.40;;;1.97;;
5813;SDS011;2933;52.302;8.134;2023-05-23T16:00:22;7.63;;;2.47;;
5813;SDS011;2933;52.302;8.134;2023-05-23T16:05:23;7.20;;;1.90;;
5813;SDS011;2933;52.302;8.134;2023-05-23T16:10:26;8.43;;;1.47;;
5813;SDS011;2933;52.302;8.134;2023-05-23T16:15:28;5.23;;;1.50;;
5813;SDS011;2933;52.302;8.134;2023-05-23T16:20:29;9.93;;;2.53;;
5813;SDS011;2933;52.302;8.134;2023-05-23T16:25:32;8.90;;;2.00;;
5813;SDS011;2933;52.302;8.134;2023-05-23T16:30:34;6.70;;;1.97;;
5813;SDS011;2933;52.302;8.134;2023-05-23T16:35:35;8.50;;;2.53;;
5813;SDS011;2933;52.302;8.134;2023-05-23T16:40:38;5.30;;;1.80;;
5813;SDS011;2933;52.302;8.134;2023-05-23T16:45:40;7.47;;;2.27;;
5813;SDS011;2933;52.302;8.134;2023-05-23T16:50:41;3.17;;;1.67;;
5813;SDS011;2933;52.302;8.134;2023-05-23T16:55:45;13.60;;;1.97;;
5813;SDS011;2933;52.302;8.134;2023-05-23T17:00:46;2.57;;;1.60;;
5813;SDS011;2933;52.302;8.134;2023-05-23T17:05:48;4.20;;;1.37;;
5813;SDS011;2933;52.302;8.134;2023-05-23T17:10:51;6.87;;;1.60;;
5813;SDS011;2933;52.302;8.134;2023-05-23T17:15:53;5.50;;;2.43;;
5813;SDS011;2933;52.302;8.134;2023-05-23T17:20:54;5.60;;;1.60;;
5813;SDS011;2933;52.302;8.134;2023-05-23T17:25:57;6.60;;;2.23;;
5813;SDS011;2933;52.302;8.134;2023-05-23T17:30:59;5.00;;;2.07;;
5813;SDS011;2933;52.302;8.134;2023-05-23T17:36:00;6.63;;;1.93;;
5813;SDS011;2933;52.302;8.134;2023-05-23T17:41:03;8.23;;;2.10;;
5813;SDS011;2933;52.302;8.134;2023-05-23T17:46:05;4.30;;;1.93;;
5813;SDS011;2933;52.302;8.134;2023-05-23T17:51:06;7.63;;;1.60;;
5813;SDS011;2933;52.302;8.134;2023-05-23T17:56:09;4.53;;;1.70;;
5813;SDS011;2933;52.302;8.134;2023-05-23T18:01:11;12.17;;;1.70;;
5813;SDS011;2933;52.302;8.134;2023-05-23T18:06:13;11.60;;;2.07;;
5813;SDS011;2933;52.302;8.134;2023-05-23T18:11:16;10.73;;;2.40;;
5813;SDS011;2933;52.302;8.134;2023-05-23T18:16:17;9.23;;;1.90;;
5813;SDS011;2933;52.302;8.134;2023-05-23T18:21:19;5.53;;;1.90;;
5813;SDS011;2933;52.302;8.134;2023-05-23T18:26:22;5.90;;;1.60;;
5813;SDS011;2933;52.302;8.134;2023-05-23T18:31:23;10.20;;;2.37;;
5813;SDS011;2933;52.302;8.134;2023-05-23T18:36:26;5.73;;;2.07;;
5813;SDS011;2933;52.302;8.134;2023-05-23T18:41:29;6.93;;;1.80;;
5813;SDS011;2933;52.302;8.134;2023-05-23T18:46:30;15.10;;;2.80;;
5813;SDS011;2933;52.302;8.134;2023-05-23T18:51:32;11.93;;;1.87;;
5813;SDS011;2933;52.302;8.134;2023-05-23T18:56:35;13.63;;;2.20;;
5813;SDS011;2933;52.302;8.134;2023-05-23T19:01:37;10.97;;;2.60;;
5813;SDS011;2933;52.302;8.134;2023-05-23T19:06:38;8.50;;;1.67;;
5813;SDS011;2933;52.302;8.134;2023-05-23T19:11:41;10.90;;;1.83;;
5813;SDS011;2933;52.302;8.134;2023-05-23T19:16:43;8.83;;;2.13;;
5813;SDS011;2933;52.302;8.134;2023-05-23T19:21:45;18.63;;;2.10;;
5813;SDS011;2933;52.302;8.134;2023-05-23T19:26:48;5.40;;;1.63;;
5813;SDS011;2933;52.302;8.134;2023-05-23T19:31:49;5.33;;;2.10;;
5813;SDS011;2933;52.302;8.134;2023-05-23T19:36:51;18.80;;;2.00;;
5813;SDS011;2933;52.302;8.134;2023-05-23T19:41:54;3.23;;;1.67;;
5813;SDS011;2933;52.302;8.134;2023-05-23T19:46:55;4.50;;;1.20;;
5813;SDS011;2933;52.302;8.134;2023-05-23T19:51:57;10.50;;;2.07;;
5813;SDS011;2933;52.302;8.134;2023-05-23T19:57:00;9.23;;;1.73;;
5813;SDS011;2933;52.302;8.134;2023-05-23T20:02:02;12.80;;;1.57;;
5813;SDS011;2933;52.302;8.134;2023-05-23T20:07:04;5.07;;;1.77;;
5813;SDS011;2933;52.302;8.134;2023-05-23T20:12:08;5.80;;;1.87;;
5813;SDS011;2933;52.302;8.134;2023-05-23T20:17:10;4.40;;;1.60;;
5813;SDS011;2933;52.302;8.134;2023-05-23T20:22:11;10.37;;;1.97;;
5813;SDS011;2933;52.302;8.134;2023-05-23T20:27:14;8.80;;;1.73;;
5813;SDS011;2933;52.302;8.134;2023-05-23T20:32:16;6.67;;;1.90;;
5813;SDS011;2933;52.302;8.134;2023-05-23T20:37:17;9.30;;;1.63;;
5813;SDS011;2933;52.302;8.134;2023-05-23T20:42:20;4.70;;;1.53;;
5813;SDS011;2933;52.302;8.134;2023-05-23T20:47:22;7.70;;;1.83;;
5813;SDS011;2933;52.302;8.134;2023-05-23T20:52:24;10.63;;;1.93;;
5813;SDS011;2933;52.302;8.134;2023-05-23T20:57:27;6.57;;;1.40;;
5813;SDS011;2933;52.302;8.134;2023-05-23T21:02:29;9.13;;;1.50;;
5813;SDS011;2933;52.302;8.134;2023-05-23T21:07:31;6.20;;;1.57;;
5813;SDS011;2933;52.302;8.134;2023-05-23T21:12:34;14.87;;;1.90;;
5813;SDS011;2933;52.302;8.134;2023-05-23T21:17:35;5.90;;;1.60;;
5813;SDS011;2933;52.302;8.134;2023-05-23T21:22:37;10.93;;;1.40;;
5813;SDS011;2933;52.302;8.134;2023-05-23T21:27:40;11.70;;;2.27;;
5813;SDS011;2933;52.302;8.134;2023-05-23T21:32:41;10.53;;;1.67;;
5813;SDS011;2933;52.302;8.134;2023-05-23T21:37:43;3.37;;;1.60;;
5813;SDS011;2933;52.302;8.134;2023-05-23T21:42:46;4.57;;;1.60;;
5813;SDS011;2933;52.302;8.134;2023-05-23T21:47:48;7.93;;;2.30;;
5813;SDS011;2933;52.302;8.134;2023-05-23T21:52:49;6.67;;;2.00;;
5813;SDS011;2933;52.302;8.134;2023-05-23T21:57:52;15.40;;;2.30;;
5813;SDS011;2933;52.302;8.134;2023-05-23T22:02:54;9.33;;;1.67;;
5813;SDS011;2933;52.302;8.134;2023-05-23T22:07:55;6.93;;;2.00;;
5813;SDS011;2933;52.302;8.134;2023-05-23T22:12:58;13.57;;;2.23;;
5813;SDS011;2933;52.302;8.134;2023-05-23T22:18:00;12.33;;;2.00;;
5813;SDS011;2933;52.302;8.134;2023-05-23T22:23:02;8.40;;;1.97;;
5813;SDS011;2933;52.302;8.134;2023-05-23T22:28:05;8.03;;;1.90;;
5813;SDS011;2933;52.302;8.134;2023-05-23T22:33:06;7.60;;;1.83;;
5813;SDS011;2933;52.302;8.134;2023-05-23T22:38:11;8.93;;;2.10;;
5813;SDS011;2933;52.302;8.134;2023-05-23T22:43:14;6.50;;;1.90;;
5813;SDS011;2933;52.302;8.134;2023-05-23T22:48:17;4.70;;;1.93;;
5813;SDS011;2933;52.302;8.134;2023-05-23T22:53:19;10.83;;;1.67;;
5813;SDS011;2933;52.302;8.134;2023-05-23T22:58:22;14.27;;;2.40;;
5813;SDS011;2933;52.302;8.134;2023-05-23T23:03:24;11.20;;;3.00;;
5813;SDS011;2933;52.302;8.134;2023-05-23T23:08:26;7.63;;;1.77;;
5813;SDS011;2933;52.302;8.134;2023-05-23T23:13:29;6.17;;;2.10;;
5813;SDS011;2933;52.302;8.134;2023-05-23T23:18:30;9.27;;;2.30;;
5813;SDS011;2933;52.302;8.134;2023-05-23T23:23:32;18.97;;;2.10;;
5813;SDS011;2933;52.302;8.134;2023-05-23T23:28:36;15.87;;;2.23;;
5813;SDS011;2933;52.302;8.134;2023-05-23T23:33:38;11.83;;;2.13;;
5813;SDS011;2933;52.302;8.134;2023-05-23T23:38:39;13.80;;;2.53;;
5813;SDS011;2933;52.302;8.134;2023-05-23T23:43:42;12.87;;;1.83;;
5813;SDS011;2933;52.302;8.134;2023-05-23T23:48:44;9.47;;;2.00;;
5813;SDS011;2933;52.302;8.134;2023-05-23T23:53:45;4.40;;;1.90;;
5813;SDS011;2933;52.302;8.134;2023-05-23T23:58:48;4.97;;;1.97;;
